Time;durP1;ratioP1;P1;durP2;ratioP2;P2;SDS_P1;SDS_P2;PMS_P1;PMS_P2;Temp;Humidity;BMP_temperature;BMP_pressure;BME280_temperature;BME280_humidity;BME280_pressure;Samples;Min_cycle;Max_cycle;Signal;HPM_P1;HPM_P2
2022/08/14 00:01:08;;;;;;;5.90;3.87;;;24.70;99.90;;;;;;5014108;28;20493;-80
2022/08/14 00:03:35;;;;;;;4.80;3.80;;;24.70;99.90;;;;;;5012680;28;20540;-80
2022/08/14 00:06:03;;;;;;;4.97;3.60;;;24.60;99.90;;;;;;5014220;28;20549;-81
2022/08/14 00:08:30;;;;;;;4.97;4.10;;;24.50;99.90;;;;;;5011845;28;20549;-80
2022/08/14 00:10:59;;;;;;;6.30;4.40;;;24.50;99.90;;;;;;5018600;28;20529;-79
2022/08/14 00:13:28;;;;;;;5.53;4.03;;;24.30;99.90;;;;;;5012158;28;20457;-80
2022/08/14 00:15:56;;;;;;;5.43;4.07;;;24.40;99.90;;;;;;5013250;28;20500;-80
2022/08/14 00:18:25;;;;;;;4.30;3.90;;;24.30;99.90;;;;;;5012814;28;20513;-80
2022/08/14 00:20:53;;;;;;;4.80;4.27;;;24.30;99.90;;;;;;5012846;28;20488;-80
2022/08/14 00:23:20;;;;;;;5.40;4.10;;;24.20;99.90;;;;;;5013230;28;20553;-79
2022/08/14 00:25:50;;;;;;;5.67;4.30;;;24.20;99.90;;;;;;5015939;28;20454;-81
2022/08/14 00:28:20;;;;;;;4.70;4.07;;;24.10;99.90;;;;;;5017117;28;20478;-81
2022/08/14 00:30:48;;;;;;;5.00;4.50;;;24.10;99.90;;;;;;5016158;28;21012;-81
2022/08/14 00:33:15;;;;;;;5.20;4.00;;;24.00;99.90;;;;;;5013515;28;21031;-81
2022/08/14 00:35:42;;;;;;;8.27;4.17;;;24.00;99.90;;;;;;5013692;28;20497;-81
2022/08/14 00:38:09;;;;;;;6.80;4.73;;;24.00;99.90;;;;;;5013355;28;20545;-80
2022/08/14 00:40:36;;;;;;;5.57;4.13;;;23.90;99.90;;;;;;5012017;28;20450;-80
2022/08/14 00:43:03;;;;;;;6.20;5.20;;;23.90;99.90;;;;;;5013353;28;20453;-80
2022/08/14 00:45:31;;;;;;;8.33;5.50;;;23.80;99.90;;;;;;5014299;28;20501;-81
2022/08/14 00:47:58;;;;;;;7.10;6.40;;;23.80;99.90;;;;;;5014126;28;20548;-80
2022/08/14 00:50:27;;;;;;;7.30;6.60;;;23.80;99.90;;;;;;5014360;28;20497;-80
2022/08/14 00:52:54;;;;;;;6.80;6.10;;;23.70;99.90;;;;;;5008541;28;20511;-82
2022/08/14 00:55:21;;;;;;;7.00;6.20;;;23.70;99.90;;;;;;5035164;28;20489;-82
2022/08/14 00:58:29;;;;;;;6.63;6.03;;;23.60;99.90;;;;;;5019509;28;20469;-79
2022/08/14 01:00:38;;;;;;;8.30;7.40;;;23.60;99.90;;;;;;5014850;28;20878;-79
2022/08/14 01:03:08;;;;;;;7.67;6.87;;;23.50;99.90;;;;;;5013710;28;20545;-80
2022/08/14 01:05:35;;;;;;;7.30;6.60;;;23.40;99.90;;;;;;5012443;28;20549;-80
2022/08/14 01:08:02;;;;;;;6.90;6.20;;;23.40;99.90;;;;;;5015962;28;20548;-79
2022/08/14 01:13:15;;;;;;;6.13;5.50;;;23.30;99.90;;;;;;5006865;28;20438;-80
2022/08/14 01:15:43;;;;;;;8.50;6.97;;;23.20;99.90;;;;;;5016991;28;20458;-80
2022/08/14 01:21:08;;;;;;;7.50;5.97;;;23.10;99.90;;;;;;5018073;28;20449;-80
2022/08/14 01:23:42;;;;;;;6.30;5.70;;;23.10;99.90;;;;;;5018112;28;20488;-80
2022/08/14 01:26:10;;;;;;;6.10;5.50;;;23.00;99.90;;;;;;5019739;28;20529;-79
2022/08/14 01:28:39;;;;;;;6.17;5.57;;;22.90;99.90;;;;;;5021749;28;20536;-79
2022/08/14 01:31:08;;;;;;;6.40;5.60;;;22.90;99.90;;;;;;5021147;28;20507;-80
2022/08/14 01:33:39;;;;;;;6.07;5.43;;;22.80;99.90;;;;;;5019844;28;20445;-82
2022/08/14 01:36:08;;;;;;;7.50;4.90;;;22.80;99.90;;;;;;5018673;28;20481;-80
2022/08/14 01:38:35;;;;;;;7.07;5.93;;;22.80;99.90;;;;;;5017004;28;20840;-79
2022/08/14 01:41:06;;;;;;;6.13;5.23;;;22.70;99.90;;;;;;5016857;28;20466;-79
2022/08/14 01:43:42;;;;;;;8.03;5.03;;;22.70;99.90;;;;;;5014469;28;20524;-79
2022/08/14 01:46:10;;;;;;;9.47;5.80;;;22.60;99.90;;;;;;5020091;28;20453;-80
2022/08/14 01:48:41;;;;;;;6.33;5.37;;;22.60;99.90;;;;;;5031684;28;20501;-79
2022/08/14 01:51:08;;;;;;;8.33;5.50;;;22.50;99.90;;;;;;5014120;28;20490;-79
2022/08/14 01:53:35;;;;;;;6.67;5.10;;;22.50;99.90;;;;;;5015079;28;20485;-80
2022/08/14 01:56:05;;;;;;;5.90;5.00;;;22.50;99.90;;;;;;5015377;28;20485;-81
2022/08/14 01:58:32;;;;;;;6.03;5.43;;;22.40;99.90;;;;;;5016510;28;20482;-80
2022/08/14 02:00:59;;;;;;;6.63;6.03;;;22.40;99.90;;;;;;5014367;28;20980;-78
2022/08/14 02:03:29;;;;;;;5.80;5.20;;;22.40;99.90;;;;;;5013698;28;20462;-81
2022/08/14 02:05:58;;;;;;;6.27;5.20;;;22.40;99.90;;;;;;5014049;28;20461;-79
2022/08/14 02:08:28;;;;;;;6.40;5.80;;;22.30;99.90;;;;;;5013391;28;20535;-80
2022/08/14 02:13:39;;;;;;;29.97;28.07;;;22.30;99.90;;;;;;5011511;28;20449;-77
2022/08/14 02:16:06;;;;;;;6.30;5.50;;;22.30;99.90;;;;;;5014961;28;20553;-80
2022/08/14 02:18:34;;;;;;;448.33;57.63;;;22.30;99.90;;;;;;5014361;28;20494;-81
2022/08/14 02:21:03;;;;;;;18.00;7.20;;;22.30;99.90;;;;;;5010380;28;20450;-80
2022/08/14 02:23:30;;;;;;;7.27;5.80;;;22.20;99.90;;;;;;5002966;28;20489;-80
2022/08/14 02:25:58;;;;;;;6.27;5.67;;;22.20;99.90;;;;;;5014348;28;20462;-80
2022/08/14 02:28:25;;;;;;;6.90;6.00;;;22.20;99.90;;;;;;5015002;28;20504;-81
2022/08/14 02:30:54;;;;;;;6.67;5.00;;;22.20;99.90;;;;;;4999891;28;20473;-81
2022/08/14 02:33:21;;;;;;;8.40;6.30;;;22.10;99.90;;;;;;5015119;28;20486;-81
2022/08/14 02:35:48;;;;;;;6.17;5.57;;;22.10;99.90;;;;;;5016215;28;20465;-80
2022/08/14 02:38:15;;;;;;;7.13;6.40;;;22.10;99.90;;;;;;5016222;28;20477;-81
2022/08/14 02:40:42;;;;;;;8.43;5.57;;;22.00;99.90;;;;;;5016387;28;20886;-81
2022/08/14 02:43:10;;;;;;;5.50;5.00;;;22.00;99.90;;;;;;5015996;28;20457;-81
2022/08/14 02:45:37;;;;;;;6.30;5.40;;;22.00;99.90;;;;;;5015136;28;20978;-80
2022/08/14 02:48:08;;;;;;;11.17;6.53;;;22.00;99.90;;;;;;5015478;28;20564;-81
2022/08/14 02:50:37;;;;;;;6.00;5.30;;;22.00;99.90;;;;;;5016208;28;20889;-81
2022/08/14 02:53:05;;;;;;;6.43;5.73;;;22.00;99.90;;;;;;5017516;28;20462;-83
2022/08/14 02:55:32;;;;;;;6.93;6.23;;;21.90;99.90;;;;;;5028799;28;20431;-83
2022/08/14 02:57:59;;;;;;;5.77;5.17;;;21.90;99.90;;;;;;5009655;28;20465;-81
2022/08/14 03:00:26;;;;;;;6.60;6.00;;;21.90;99.90;;;;;;5014864;28;20461;-82
2022/08/14 03:02:53;;;;;;;6.80;6.10;;;21.80;99.90;;;;;;5006387;28;20544;-81
2022/08/14 03:05:23;;;;;;;7.07;6.03;;;21.80;99.90;;;;;;5014999;28;20548;-81
2022/08/14 03:07:49;;;;;;;6.30;5.57;;;21.80;99.90;;;;;;5007646;28;20508;-81
2022/08/14 03:10:16;;;;;;;6.47;5.83;;;21.70;99.90;;;;;;5015955;28;20477;-80
2022/08/14 03:12:43;;;;;;;7.43;6.13;;;21.70;99.90;;;;;;5015071;28;21035;-82
2022/08/14 03:15:13;;;;;;;6.77;5.53;;;21.60;99.90;;;;;;5014024;28;20961;-80
2022/08/14 03:17:41;;;;;;;6.50;5.90;;;21.60;99.90;;;;;;5012841;28;20453;-80
2022/08/14 03:20:09;;;;;;;6.27;5.43;;;21.60;99.90;;;;;;5014830;28;20561;-81
2022/08/14 03:22:38;;;;;;;6.70;5.83;;;21.60;99.90;;;;;;5015763;28;20445;-80
2022/08/14 03:25:07;;;;;;;6.50;5.80;;;21.60;99.90;;;;;;5011674;28;20457;-80
2022/08/14 03:27:34;;;;;;;6.80;6.00;;;21.60;99.90;;;;;;5015595;28;20475;-83
2022/08/14 03:30:02;;;;;;;7.50;6.70;;;21.50;99.90;;;;;;5014917;28;20509;-82
2022/08/14 03:32:29;;;;;;;6.17;5.50;;;21.50;99.90;;;;;;5015389;28;20497;-81
2022/08/14 03:34:56;;;;;;;8.07;6.17;;;21.50;99.90;;;;;;5014934;28;20468;-81
2022/08/14 03:37:25;;;;;;;7.73;6.60;;;21.50;99.90;;;;;;5014707;28;20464;-81
2022/08/14 03:39:54;;;;;;;7.03;6.07;;;21.40;99.90;;;;;;5015152;28;20496;-81
2022/08/14 03:42:24;;;;;;;7.77;6.70;;;21.40;99.90;;;;;;5015017;28;20541;-83
2022/08/14 03:44:51;;;;;;;8.23;6.90;;;21.30;99.90;;;;;;5014878;28;20458;-81
2022/08/14 03:47:18;;;;;;;8.90;7.30;;;21.30;99.90;;;;;;5015120;28;20454;-81
2022/08/14 03:49:47;;;;;;;7.07;6.37;;;21.30;99.90;;;;;;5015258;28;20481;-82
2022/08/14 03:52:14;;;;;;;8.73;6.30;;;21.20;99.90;;;;;;5015367;28;20951;-81
2022/08/14 03:54:40;;;;;;;7.17;6.20;;;21.20;99.90;;;;;;5014797;28;20461;-82
2022/08/14 03:57:09;;;;;;;7.80;7.00;;;21.20;99.90;;;;;;5015282;28;20450;-81
2022/08/14 03:59:36;;;;;;;8.20;7.17;;;21.20;99.90;;;;;;5004571;28;20493;-81
2022/08/14 04:02:04;;;;;;;10.00;6.97;;;21.20;99.90;;;;;;5014282;28;20446;-82
2022/08/14 04:04:31;;;;;;;8.03;7.17;;;21.20;99.90;;;;;;5014053;28;20541;-80
2022/08/14 04:06:59;;;;;;;9.13;8.13;;;21.10;99.90;;;;;;5014584;28;20526;-82
2022/08/14 04:09:26;;;;;;;8.50;6.67;;;21.10;99.90;;;;;;5015448;28;20505;-82
2022/08/14 04:11:53;;;;;;;7.40;6.23;;;21.10;99.90;;;;;;5015573;28;20572;-82
2022/08/14 04:14:21;;;;;;;10.73;7.73;;;21.10;99.90;;;;;;5013914;28;20962;-83
2022/08/14 04:16:48;;;;;;;7.90;6.90;;;21.10;99.90;;;;;;5012721;28;20466;-81
2022/08/14 04:19:17;;;;;;;9.17;7.80;;;21.00;99.90;;;;;;5015060;28;20485;-81
2022/08/14 04:21:44;;;;;;;9.73;7.90;;;21.00;99.90;;;;;;5015200;28;20924;-82
2022/08/14 04:24:12;;;;;;;8.27;7.33;;;21.00;99.90;;;;;;5013537;28;20982;-79
2022/08/14 04:26:39;;;;;;;11.00;7.07;;;21.00;99.90;;;;;;5011569;28;20962;-81
2022/08/14 04:29:08;;;;;;;7.77;6.97;;;20.90;99.90;;;;;;5013997;28;20480;-83
2022/08/14 04:31:37;;;;;;;8.20;7.40;;;20.80;99.90;;;;;;5025238;28;20552;-85
2022/08/14 04:34:05;;;;;;;7.70;7.00;;;20.80;99.90;;;;;;5033042;28;20449;-83
2022/08/14 04:43:34;;;;;;;8.60;7.80;;;20.80;99.90;;;;;;5016950;28;20500;-80
2022/08/14 04:44:48;;;;;;;8.33;7.43;;;20.70;99.90;;;;;;5016807;28;20455;-80
2022/08/14 04:50:21;;;;;;;8.60;7.50;;;20.70;99.90;;;;;;5017568;28;20474;-79
2022/08/14 04:52:48;;;;;;;8.53;7.53;;;20.70;99.90;;;;;;5019068;28;21043;-82
2022/08/14 04:55:15;;;;;;;9.87;8.30;;;20.70;99.90;;;;;;5029919;28;20458;-79
2022/08/14 04:57:42;;;;;;;9.30;8.13;;;20.70;99.90;;;;;;5024491;28;20584;-81
2022/08/14 05:00:10;;;;;;;9.30;8.10;;;20.70;99.90;;;;;;5019015;28;20473;-81
2022/08/14 05:02:38;;;;;;;8.83;7.93;;;20.70;99.90;;;;;;5019174;28;20481;-81
2022/08/14 05:05:05;;;;;;;9.30;8.20;;;20.70;99.90;;;;;;5018717;28;20438;-81
2022/08/14 05:07:32;;;;;;;9.10;8.20;;;20.70;99.90;;;;;;5014950;28;20546;-81
2022/08/14 05:09:59;;;;;;;8.30;7.50;;;20.70;99.90;;;;;;5018017;28;20477;-81
2022/08/14 05:12:26;;;;;;;10.30;7.77;;;20.80;99.90;;;;;;5017126;28;20493;-78
2022/08/14 05:14:53;;;;;;;9.10;8.17;;;20.80;99.90;;;;;;5011347;28;20473;-80
2022/08/14 05:17:24;;;;;;;9.17;7.70;;;20.80;99.90;;;;;;5019383;28;20549;-81
2022/08/14 05:20:34;;;;;;;9.47;8.53;;;20.80;99.90;;;;;;5015880;28;20474;-79
2022/08/14 05:23:39;;;;;;;12.00;9.20;;;20.90;99.90;;;;;;5011489;28;20461;-81
2022/08/14 05:26:17;;;;;;;9.27;8.17;;;21.00;99.90;;;;;;5005534;28;21147;-80
2022/08/14 05:28:45;;;;;;;9.13;8.23;;;21.00;99.90;;;;;;5011290;28;20496;-81
2022/08/14 05:31:17;;;;;;;9.73;8.83;;;21.00;99.90;;;;;;5009636;28;20460;-78
2022/08/14 05:33:55;;;;;;;9.73;8.73;;;21.10;99.90;;;;;;5007688;28;20454;-79
2022/08/14 05:36:22;;;;;;;9.17;8.30;;;21.20;99.90;;;;;;5009844;28;20450;-81
2022/08/14 05:38:50;;;;;;;9.43;8.43;;;21.20;99.90;;;;;;5012552;28;20553;-81
2022/08/14 05:41:19;;;;;;;10.30;9.10;;;21.30;99.90;;;;;;5017381;28;21025;-81
2022/08/14 05:43:47;;;;;;;9.53;8.43;;;21.40;99.90;;;;;;5018528;28;21017;-82
2022/08/14 05:46:17;;;;;;;9.93;8.90;;;21.40;99.90;;;;;;5019148;28;20880;-81
2022/08/14 05:48:48;;;;;;;10.87;9.00;;;21.50;99.90;;;;;;5018539;28;20970;-81
2022/08/14 05:51:15;;;;;;;9.97;9.00;;;21.50;99.90;;;;;;5016437;28;20447;-79
2022/08/14 05:53:42;;;;;;;10.27;8.33;;;21.60;99.90;;;;;;5015834;28;20442;-81
2022/08/14 05:56:11;;;;;;;11.50;9.50;;;21.60;99.90;;;;;;5016516;28;20536;-81
2022/08/14 05:58:38;;;;;;;10.23;9.00;;;21.70;99.90;;;;;;5015063;28;20478;-79
2022/08/14 06:01:08;;;;;;;10.67;8.87;;;21.70;99.90;;;;;;5023910;28;20462;-80
2022/08/14 06:03:35;;;;;;;9.87;8.80;;;21.80;99.90;;;;;;5022371;28;20449;-82
2022/08/14 06:06:02;;;;;;;8.90;8.00;;;21.90;99.90;;;;;;5030195;28;20481;-81
2022/08/14 06:08:31;;;;;;;9.50;8.50;;;21.90;99.90;;;;;;5032575;28;20493;-81
2022/08/14 06:11:02;;;;;;;10.27;9.27;;;22.00;99.90;;;;;;5019986;28;20509;-83
2022/08/14 06:13:31;;;;;;;11.50;9.30;;;22.10;99.90;;;;;;5017513;28;20512;-81
2022/08/14 06:15:58;;;;;;;9.20;8.30;;;22.10;99.90;;;;;;5018477;28;20962;-79
2022/08/14 06:18:25;;;;;;;8.90;7.97;;;22.20;99.90;;;;;;5017588;28;20928;-79
2022/08/14 06:20:53;;;;;;;9.50;8.20;;;22.30;99.90;;;;;;5015468;28;21012;-77
2022/08/14 06:23:20;;;;;;;9.60;8.70;;;22.30;99.90;;;;;;5014527;28;20548;-80
2022/08/14 06:25:47;;;;;;;10.50;9.40;;;22.40;99.90;;;;;;5015439;28;20453;-82
2022/08/14 06:28:17;;;;;;;9.90;9.00;;;22.40;99.90;;;;;;5015385;28;20564;-80
2022/08/14 06:30:45;;;;;;;8.40;7.60;;;22.50;99.90;;;;;;5015307;28;20483;-81
2022/08/14 06:33:12;;;;;;;9.67;7.70;;;22.50;99.90;;;;;;5014182;28;20486;-80
2022/08/14 06:35:39;;;;;;;9.10;8.07;;;22.60;99.90;;;;;;5014762;28;20464;-79
2022/08/14 06:38:07;;;;;;;9.60;8.60;;;22.60;99.90;;;;;;5014943;28;20480;-82
2022/08/14 06:40:39;;;;;;;10.03;8.97;;;22.60;99.90;;;;;;5015269;28;20473;-80
2022/08/14 06:43:08;;;;;;;9.33;8.50;;;22.70;99.90;;;;;;5015495;28;20461;-81
2022/08/14 06:45:37;;;;;;;9.40;8.50;;;22.80;99.90;;;;;;5015121;28;20481;-79
2022/08/14 06:48:14;;;;;;;8.87;8.07;;;22.80;99.90;;;;;;5014643;28;21064;-80
2022/08/14 06:50:44;;;;;;;7.90;7.10;;;22.90;99.90;;;;;;5010048;28;20468;-78
2022/08/14 06:53:13;;;;;;;9.33;8.37;;;22.90;99.90;;;;;;5014691;28;20616;-80
2022/08/14 06:55:40;;;;;;;9.70;8.00;;;22.90;99.90;;;;;;5027802;28;20464;-79
2022/08/14 06:58:11;;;;;;;8.90;8.07;;;23.00;99.90;;;;;;5020590;28;20478;-79
2022/08/14 07:00:38;;;;;;;9.13;8.17;;;23.10;99.90;;;;;;5016386;28;20556;-80
2022/08/14 07:05:51;;;;;;;9.07;8.17;;;23.20;99.90;;;;;;5011194;28;20433;-79
2022/08/14 07:08:21;;;;;;;8.43;7.63;;;23.30;99.90;;;;;;5007194;28;20558;-80
2022/08/14 07:10:50;;;;;;;9.30;8.40;;;23.40;99.90;;;;;;5007111;28;20945;-78
2022/08/14 07:13:18;;;;;;;9.17;8.27;;;23.40;99.90;;;;;;4999754;28;20577;-79
2022/08/14 07:15:47;;;;;;;11.73;8.27;;;23.50;99.90;;;;;;5006117;28;20456;-80
2022/08/14 07:18:19;;;;;;;8.70;7.90;;;23.60;99.90;;;;;;5031334;28;20469;-80
2022/08/14 07:20:46;;;;;;;8.60;7.80;;;23.60;99.90;;;;;;5002451;28;20530;-79
2022/08/14 07:23:13;;;;;;;9.13;8.23;;;23.70;99.90;;;;;;4992228;28;20457;-80
2022/08/14 07:25:42;;;;;;;9.47;8.23;;;23.70;99.90;;;;;;5002491;28;20461;-79
2022/08/14 07:28:11;;;;;;;9.67;7.67;;;23.80;99.90;;;;;;5011755;28;20484;-79
2022/08/14 07:30:38;;;;;;;9.83;8.83;;;23.90;99.90;;;;;;5013596;28;20529;-79
2022/08/14 07:33:06;;;;;;;8.10;7.30;;;23.90;99.90;;;;;;5012703;28;20497;-79
2022/08/14 07:35:36;;;;;;;8.73;7.83;;;24.00;99.90;;;;;;5013449;28;20534;-79
2022/08/14 07:38:03;;;;;;;9.30;8.40;;;24.10;99.90;;;;;;5012921;28;20840;-79
2022/08/14 07:40:30;;;;;;;8.73;7.93;;;24.10;99.90;;;;;;5013182;28;20544;-80
2022/08/14 07:42:57;;;;;;;8.93;8.03;;;24.20;99.90;;;;;;5012491;28;20485;-79
2022/08/14 07:45:24;;;;;;;9.10;8.20;;;24.30;99.90;;;;;;5013827;28;20496;-77
2022/08/14 07:47:51;;;;;;;9.67;7.97;;;24.30;99.90;;;;;;5012706;28;20538;-80
2022/08/14 07:50:19;;;;;;;7.53;6.80;;;24.40;99.90;;;;;;5012942;28;20449;-79
2022/08/14 07:52:51;;;;;;;9.20;8.30;;;24.50;99.90;;;;;;5012227;28;21005;-77
2022/08/14 07:55:18;;;;;;;8.27;7.47;;;24.50;99.90;;;;;;5013093;28;20473;-81
2022/08/14 07:57:47;;;;;;;9.23;8.33;;;24.60;99.90;;;;;;5012902;28;20561;-78
2022/08/14 08:00:17;;;;;;;9.40;8.37;;;24.60;99.90;;;;;;5012381;28;20556;-77
2022/08/14 08:02:45;;;;;;;8.33;7.50;;;24.70;99.90;;;;;;5011927;28;20446;-77
2022/08/14 08:05:14;;;;;;;8.23;7.40;;;24.90;99.90;;;;;;5014202;28;20842;-80
2022/08/14 08:07:42;;;;;;;7.53;6.83;;;24.90;99.90;;;;;;5016437;28;20545;-78
2022/08/14 08:10:31;;;;;;;7.87;7.17;;;25.00;99.90;;;;;;5016730;28;20468;-79
2022/08/14 08:13:00;;;;;;;8.77;7.67;;;25.10;99.90;;;;;;5016124;28;20557;-80
2022/08/14 08:15:30;;;;;;;8.73;7.93;;;25.30;99.90;;;;;;5016980;28;20544;-81
2022/08/14 08:18:03;;;;;;;7.50;6.80;;;25.30;99.90;;;;;;5015211;28;20453;-78
2022/08/14 08:20:38;;;;;;;8.63;6.60;;;25.40;99.90;;;;;;5017067;28;20438;-78
2022/08/14 08:23:06;;;;;;;8.43;7.47;;;25.50;99.90;;;;;;5016032;28;20857;-79
2022/08/14 08:25:39;;;;;;;8.13;7.30;;;25.60;99.90;;;;;;5015891;28;20461;-82
2022/08/14 08:28:08;;;;;;;8.63;7.63;;;25.60;99.90;;;;;;5014420;28;21030;-80
2022/08/14 08:30:37;;;;;;;7.53;6.57;;;25.80;99.90;;;;;;5016538;28;20461;-80
2022/08/14 08:33:06;;;;;;;8.50;7.70;;;25.90;99.90;;;;;;5017030;28;20489;-81
2022/08/14 08:35:34;;;;;;;7.90;7.10;;;26.10;99.90;;;;;;5015516;28;21052;-79
2022/08/14 08:38:05;;;;;;;8.00;7.20;;;26.20;99.90;;;;;;5015137;28;20449;-78
2022/08/14 08:40:35;;;;;;;8.43;7.67;;;26.40;99.90;;;;;;5014918;28;20524;-79
2022/08/14 08:43:05;;;;;;;8.37;7.43;;;26.60;99.90;;;;;;5014242;28;20454;-80
2022/08/14 08:45:33;;;;;;;8.00;7.30;;;26.70;99.90;;;;;;5015242;28;20465;-79
2022/08/14 08:48:00;;;;;;;9.60;7.70;;;26.90;99.90;;;;;;5014622;28;20523;-80
2022/08/14 08:50:33;;;;;;;7.80;6.60;;;27.10;99.90;;;;;;5014759;28;20504;-79
2022/08/14 08:53:02;;;;;;;8.73;7.93;;;27.30;99.90;;;;;;5012060;28;20568;-78
2022/08/14 08:55:32;;;;;;;8.03;7.10;;;27.20;99.90;;;;;;5018121;28;20481;-79
2022/08/14 08:58:00;;;;;;;9.03;7.90;;;27.50;99.90;;;;;;5015664;28;20932;-79
2022/08/14 09:00:33;;;;;;;8.03;7.27;;;27.70;99.90;;;;;;5014265;28;20465;-79
2022/08/14 09:03:06;;;;;;;7.77;6.70;;;27.90;99.90;;;;;;5014491;28;20438;-78
2022/08/14 09:05:35;;;;;;;8.57;6.60;;;28.10;99.90;;;;;;5014484;28;20573;-77
2022/08/14 09:08:26;;;;;;;6.67;6.07;;;28.30;99.90;;;;;;5014512;28;20450;-78
2022/08/14 09:10:54;;;;;;;6.90;6.20;;;28.60;99.90;;;;;;4994910;28;20465;-76
2022/08/14 09:13:24;;;;;;;7.60;7.00;;;28.50;99.90;;;;;;5013611;28;20513;-78
2022/08/14 09:15:55;;;;;;;7.33;6.63;;;28.70;99.90;;;;;;5012893;28;20473;-79
2022/08/14 09:18:23;;;;;;;7.57;6.77;;;28.70;99.90;;;;;;5012089;28;20485;-78
2022/08/14 09:20:52;;;;;;;7.67;6.77;;;29.00;99.90;;;;;;5014129;28;20446;-77
2022/08/14 09:23:19;;;;;;;9.60;6.10;;;29.10;99.90;;;;;;5013271;28;20453;-78
2022/08/14 09:25:48;;;;;;;7.10;6.43;;;29.10;99.90;;;;;;5013816;28;21039;-78
2022/08/14 09:28:17;;;;;;;7.20;6.50;;;29.30;99.90;;;;;;4994802;28;20907;-76
2022/08/14 09:30:48;;;;;;;7.73;6.93;;;29.40;99.90;;;;;;4994028;28;20505;-77
2022/08/14 09:33:58;;;;;;;8.10;6.77;;;29.60;99.90;;;;;;5006852;28;20503;-77
2022/08/14 09:36:47;;;;;;;7.80;7.07;;;29.70;99.90;;;;;;5013485;28;20453;-79
2022/08/14 09:39:32;;;;;;;7.57;6.97;;;29.90;99.90;;;;;;5013283;28;20489;-76
2022/08/14 09:42:14;;;;;;;6.97;6.37;;;30.30;99.90;;;;;;5011392;28;20830;-77
2022/08/14 09:44:49;;;;;;;6.57;5.97;;;30.50;99.90;;;;;;5013500;28;20816;-77
2022/08/14 09:47:17;;;;;;;6.73;6.13;;;30.70;99.90;;;;;;5013281;28;20981;-77
2022/08/14 09:49:45;;;;;;;9.10;7.93;;;30.90;99.90;;;;;;5012915;28;21325;-79
2022/08/14 09:52:13;;;;;;;6.83;6.07;;;31.00;99.90;;;;;;5013567;28;20454;-77
2022/08/14 09:54:42;;;;;;;6.67;5.50;;;31.20;99.90;;;;;;5012581;28;20613;-78
2022/08/14 09:57:10;;;;;;;7.37;5.80;;;31.20;99.90;;;;;;5014123;28;20540;-78
2022/08/14 09:59:45;;;;;;;6.60;6.00;;;31.30;99.90;;;;;;5013294;28;20482;-77
2022/08/14 10:02:27;;;;;;;8.90;8.00;;;31.30;99.90;;;;;;5015640;28;20985;-78
2022/08/14 10:05:05;;;;;;;6.40;5.83;;;31.40;99.90;;;;;;5011877;28;20442;-78
2022/08/14 10:07:35;;;;;;;7.23;6.53;;;31.20;99.90;;;;;;5006415;28;20461;-79
2022/08/14 10:10:02;;;;;;;6.20;5.70;;;31.40;99.90;;;;;;5007220;28;21061;-79
2022/08/14 10:12:43;;;;;;;6.60;5.67;;;31.60;99.90;;;;;;5013343;28;20516;-79
2022/08/14 10:15:19;;;;;;;7.20;6.60;;;31.70;99.90;;;;;;5013137;28;20548;-79
2022/08/14 10:17:47;;;;;;;6.57;5.90;;;31.80;99.90;;;;;;5013444;28;20454;-77
2022/08/14 10:20:19;;;;;;;8.20;6.33;;;31.50;99.90;;;;;;5013039;28;20544;-77
2022/08/14 10:22:48;;;;;;;6.73;6.13;;;31.70;99.90;;;;;;5012780;28;20472;-79
2022/08/14 10:25:18;;;;;;;8.83;6.07;;;31.90;99.90;;;;;;5012565;28;20453;-78
2022/08/14 10:27:56;;;;;;;7.30;5.80;;;31.50;99.90;;;;;;5013063;28;20519;-78
2022/08/14 10:30:23;;;;;;;9.83;5.67;;;31.80;99.90;;;;;;5012256;28;20492;-79
2022/08/14 10:32:53;;;;;;;9.27;7.03;;;31.90;99.90;;;;;;5012512;28;20460;-79
2022/08/14 10:35:21;;;;;;;6.20;5.60;;;32.00;99.90;;;;;;5012246;28;20460;-78
2022/08/14 10:37:52;;;;;;;5.47;4.97;;;32.10;99.90;;;;;;5000446;28;20480;-77
2022/08/14 10:40:27;;;;;;;7.10;6.40;;;31.70;99.90;;;;;;5010979;28;21032;-79
2022/08/14 10:42:55;;;;;;;7.10;6.40;;;31.90;99.90;;;;;;5011402;28;20461;-78
2022/08/14 10:45:24;;;;;;;6.83;6.23;;;32.30;99.90;;;;;;5012747;28;20906;-76
2022/08/14 10:47:52;;;;;;;6.73;6.13;;;32.40;99.90;;;;;;5012589;28;20450;-78
2022/08/14 10:50:31;;;;;;;6.93;6.23;;;32.30;99.90;;;;;;5012342;28;20996;-81
2022/08/14 10:53:04;;;;;;;5.90;5.40;;;32.30;99.90;;;;;;5014245;28;21002;-78
2022/08/14 10:55:38;;;;;;;6.97;6.23;;;32.70;99.90;;;;;;5014004;28;20457;-76
2022/08/14 10:58:09;;;;;;;6.73;6.03;;;32.70;99.90;;;;;;5012751;28;20461;-78
2022/08/14 11:00:37;;;;;;;7.17;6.57;;;32.50;99.90;;;;;;5012001;28;20469;-78
2022/08/14 11:03:08;;;;;;;8.83;6.10;;;32.60;99.90;;;;;;5011742;28;20540;-78
2022/08/14 11:05:44;;;;;;;6.83;6.23;;;32.60;99.90;;;;;;5012558;28;20874;-76
2022/08/14 11:08:13;;;;;;;7.33;5.80;;;32.70;99.90;;;;;;5011852;28;21021;-77
2022/08/14 11:10:43;;;;;;;7.00;5.67;;;32.90;99.90;;;;;;5012076;28;20552;-78
2022/08/14 11:13:15;;;;;;;6.37;5.80;;;32.70;99.90;;;;;;5011323;28;21096;-78
2022/08/14 11:15:42;;;;;;;6.53;6.03;;;33.20;99.90;;;;;;5012534;28;20746;-77
2022/08/14 11:18:11;;;;;;;6.90;5.93;;;33.50;99.90;;;;;;5012094;28;20569;-79
2022/08/14 11:20:53;;;;;;;5.90;5.27;;;33.60;99.90;;;;;;5012141;28;20889;-79
2022/08/14 11:23:21;;;;;;;6.07;5.47;;;33.80;99.90;;;;;;5011368;28;20465;-79
2022/08/14 11:25:49;;;;;;;6.80;6.20;;;34.00;99.90;;;;;;5012019;28;20457;-77
2022/08/14 11:28:16;;;;;;;5.90;5.40;;;33.90;99.90;;;;;;5011971;28;20472;-78
2022/08/14 11:30:44;;;;;;;6.90;6.30;;;34.30;99.90;;;;;;5012002;28;20812;-79
2022/08/14 11:33:11;;;;;;;7.73;5.83;;;34.10;99.90;;;;;;5010561;28;20973;-79
2022/08/14 11:35:40;;;;;;;7.43;6.10;;;34.50;99.90;;;;;;5011474;28;20480;-77
2022/08/14 11:38:09;;;;;;;6.40;5.70;;;34.50;99.90;;;;;;5011312;28;20514;-79
2022/08/14 11:40:38;;;;;;;6.70;6.10;;;34.70;99.90;;;;;;5009272;28;20890;-78
2022/08/14 11:43:12;;;;;;;6.47;5.87;;;34.70;99.90;;;;;;5008201;28;20536;-78
2022/08/14 11:45:40;;;;;;;6.00;5.40;;;34.10;99.90;;;;;;5008213;28;20821;-77
2022/08/14 11:48:17;;;;;;;5.90;5.40;;;34.20;99.90;;;;;;5011452;28;20509;-77
2022/08/14 11:50:46;;;;;;;7.00;6.03;;;34.60;99.90;;;;;;5011739;28;20484;-79
2022/08/14 11:53:25;;;;;;;8.53;5.73;;;34.60;99.90;;;;;;5011231;28;20467;-78
2022/08/14 11:55:57;;;;;;;6.57;5.97;;;34.30;99.90;;;;;;5010573;28;20496;-78
2022/08/14 11:58:50;;;;;;;6.70;6.10;;;34.50;99.90;;;;;;5011401;28;21037;-77
2022/08/14 12:01:27;;;;;;;6.80;6.10;;;34.80;99.90;;;;;;5011906;28;20553;-78
2022/08/14 12:04:08;;;;;;;7.30;6.10;;;34.80;99.90;;;;;;5010802;28;20537;-76
2022/08/14 12:06:48;;;;;;;5.43;4.93;;;34.50;99.90;;;;;;5012203;28;20429;-81
2022/08/14 12:09:28;;;;;;;6.73;6.00;;;34.60;99.90;;;;;;4993673;28;20500;-80
2022/08/14 12:11:55;;;;;;;7.17;6.57;;;34.80;99.90;;;;;;5002161;28;20458;-79
2022/08/14 12:14:26;;;;;;;6.43;5.83;;;34.70;99.90;;;;;;5013990;28;20911;-80
2022/08/14 12:17:05;;;;;;;7.50;6.80;;;35.10;99.90;;;;;;5013123;28;20461;-79
2022/08/14 12:19:44;;;;;;;5.87;5.37;;;35.50;99.90;;;;;;5014637;28;20576;-76
2022/08/14 12:22:12;;;;;;;6.70;6.10;;;35.70;99.90;;;;;;5011171;28;20458;-78
2022/08/14 12:24:43;;;;;;;6.37;5.40;;;35.10;99.90;;;;;;5010765;28;20450;-76
2022/08/14 12:27:13;;;;;;;8.03;5.43;;;35.50;99.90;;;;;;5010872;28;20504;-76
2022/08/14 12:29:56;;;;;;;8.20;5.80;;;36.20;99.90;;;;;;4997338;28;20560;-79
2022/08/14 12:32:23;;;;;;;6.60;5.90;;;36.30;99.90;;;;;;5005042;28;20461;-76
2022/08/14 12:34:57;;;;;;;7.20;6.60;;;36.50;99.90;;;;;;5010462;28;20564;-77
2022/08/14 12:37:48;;;;;;;6.50;5.90;;;36.10;99.90;;;;;;5010977;28;20457;-77
2022/08/14 12:40:18;;;;;;;6.37;5.77;;;35.30;99.90;;;;;;5007502;28;20453;-78
2022/08/14 12:42:47;;;;;;;7.57;6.50;;;35.00;99.90;;;;;;5010712;28;20449;-78
2022/08/14 12:45:15;;;;;;;7.30;6.60;;;34.70;99.90;;;;;;5010910;28;20456;-79
2022/08/14 12:47:43;;;;;;;6.17;5.60;;;34.30;99.90;;;;;;5011428;28;20434;-76
2022/08/14 12:50:10;;;;;;;6.80;6.20;;;33.90;99.90;;;;;;5014761;28;20873;-81
2022/08/14 12:52:39;;;;;;;6.90;6.30;;;33.50;99.90;;;;;;5016647;28;20519;-77
2022/08/14 12:55:09;;;;;;;8.00;6.77;;;33.80;99.90;;;;;;5014170;28;20501;-79
2022/08/14 12:57:44;;;;;;;6.47;5.80;;;34.40;99.90;;;;;;5014767;28;20468;-77
2022/08/14 13:00:16;;;;;;;7.43;6.53;;;35.00;99.90;;;;;;5014428;28;20500;-77
2022/08/14 13:02:44;;;;;;;6.53;5.93;;;35.20;99.90;;;;;;5014038;28;20460;-79
2022/08/14 13:05:15;;;;;;;7.83;6.27;;;35.40;99.90;;;;;;5014351;28;20842;-78
2022/08/14 13:07:43;;;;;;;6.60;5.97;;;35.80;99.90;;;;;;5015246;28;20545;-79
2022/08/14 13:10:13;;;;;;;8.57;5.80;;;36.10;99.90;;;;;;5014840;28;20564;-78
2022/08/14 13:12:42;;;;;;;6.30;5.00;;;36.20;99.90;;;;;;5014361;28;20452;-77
2022/08/14 13:15:11;;;;;;;5.70;5.20;;;36.40;99.90;;;;;;5013607;28;21021;-78
2022/08/14 13:17:44;;;;;;;7.00;6.10;;;36.40;99.90;;;;;;5014655;28;20457;-78
2022/08/14 13:20:13;;;;;;;6.17;5.57;;;36.40;99.90;;;;;;5013543;28;20505;-78